Time;durP1;ratioP1;P1;durP2;ratioP2;P2;SDS_P1;SDS_P2;PMS_P1;PMS_P2;Temp;Humidity;BMP_temperature;BMP_pressure;BME280_temperature;BME280_humidity;BME280_pressure;Samples;Min_cycle;Max_cycle;Signal;HPM_P1;HPM_P2
2022/07/10 00:00:43;;;;;;;0.00;0.00;;;;;;;18.91;51.08;102898.59;5080224;28;20037;-77
2022/07/10 00:03:09;;;;;;;0.00;0.00;;;;;;;18.90;50.50;102901.28;5084572;28;20016;-79
2022/07/10 00:05:35;;;;;;;0.28;0.28;;;;;;;18.88;50.63;102898.63;5084365;28;20032;-79
2022/07/10 00:08:02;;;;;;;0.00;0.00;;;;;;;18.90;50.74;102901.28;5069774;28;20021;-78
2022/07/10 00:10:28;;;;;;;0.00;0.00;;;;;;;18.87;50.91;102893.31;5072555;28;20028;-79
2022/07/10 00:12:55;;;;;;;0.10;0.10;;;;;;;18.83;50.99;102895.16;5065723;28;20645;-79
2022/07/10 00:15:21;;;;;;;0.08;0.08;;;;;;;18.77;50.82;102906.03;5079508;28;20028;-79
2022/07/10 00:17:49;;;;;;;0.00;0.00;;;;;;;18.71;50.70;102907.03;5078431;28;20024;-78
2022/07/10 00:20:16;;;;;;;0.00;0.00;;;;;;;18.61;50.86;102897.44;5074971;28;20025;-78
2022/07/10 00:22:43;;;;;;;0.00;0.00;;;;;;;18.56;50.96;102896.66;5073894;28;20040;-79
2022/07/10 00:25:12;;;;;;;0.00;0.00;;;;;;;18.53;51.60;102889.53;5071437;28;20028;-78
2022/07/10 00:27:40;;;;;;;0.00;0.00;;;;;;;18.50;51.64;102886.03;5072831;28;20024;-79
2022/07/10 00:30:08;;;;;;;0.10;0.10;;;;;;;18.48;51.64;102885.16;5070332;28;20027;-78
2022/07/10 00:32:34;;;;;;;0.00;0.00;;;;;;;18.32;52.30;102885.50;5069498;28;20400;-78
2022/07/10 00:35:01;;;;;;;0.00;0.00;;;;;;;18.40;51.70;102886.19;5069021;28;20024;-79
2022/07/10 00:37:28;;;;;;;0.00;0.00;;;;;;;18.36;51.93;102884.50;5070880;28;20033;-79
2022/07/10 00:39:54;;;;;;;0.03;0.03;;;;;;;18.33;52.05;102884.59;5075689;28;20032;-79
2022/07/10 00:42:21;;;;;;;0.10;0.10;;;;;;;18.29;52.40;102884.66;5077713;28;20040;-79
2022/07/10 00:44:47;;;;;;;0.00;0.00;;;;;;;18.27;52.09;102885.56;5080359;28;20115;-79
2022/07/10 00:47:17;;;;;;;0.00;0.00;;;;;;;18.27;51.93;102879.34;5080146;28;20028;-79
2022/07/10 00:49:43;;;;;;;0.25;0.25;;;;;;;18.21;51.68;102869.59;5069967;28;20488;-79
2022/07/10 00:52:16;;;;;;;0.20;0.20;;;;;;;18.23;51.55;102866.88;5071948;28;20038;-78
2022/07/10 00:54:44;;;;;;;0.35;0.35;;;;;;;18.21;52.09;102869.59;5072800;28;20040;-79
2022/07/10 00:57:12;;;;;;;0.10;0.10;;;;;;;18.20;51.94;102866.97;5071999;28;20039;-79
2022/07/10 00:59:38;;;;;;;0.00;0.00;;;;;;;18.19;52.18;102871.41;5078627;28;20066;-80
2022/07/10 01:02:05;;;;;;;0.08;0.08;;;;;;;18.18;52.29;102866.09;5073941;28;20492;-80
2022/07/10 01:04:32;;;;;;;0.00;0.00;;;;;;;18.11;53.00;102871.56;5070814;28;20035;-78
2022/07/10 01:06:59;;;;;;;0.10;0.10;;;;;;;18.13;52.98;102871.56;5068877;28;20035;-79
2022/07/10 01:09:25;;;;;;;0.00;0.00;;;;;;;18.11;52.91;102876.06;5063852;28;20116;-79
2022/07/10 01:11:52;;;;;;;0.10;0.10;;;;;;;18.04;53.51;102866.38;5067996;28;20066;-79
2022/07/10 01:14:19;;;;;;;0.00;0.00;;;;;;;18.02;52.94;102866.41;5068948;28;20538;-79
2022/07/10 01:16:45;;;;;;;0.00;0.00;;;;;;;17.98;53.18;102866.47;5070940;28;20039;-80
2022/07/10 01:19:11;;;;;;;0.10;0.10;;;;;;;18.00;52.53;102870.91;5072613;28;20027;-80
2022/07/10 01:21:38;;;;;;;0.00;0.00;;;;;;;17.98;52.80;102864.69;5076377;28;20404;-79
2022/07/10 01:24:07;;;;;;;0.00;0.00;;;;;;;17.96;52.56;102863.84;5071758;28;20047;-80
2022/07/10 01:26:34;;;;;;;0.10;0.10;;;;;;;17.95;52.63;102862.06;5065065;28;20017;-80
2022/07/10 01:29:06;;;;;;;0.10;0.10;;;;;;;17.94;52.57;102862.97;5064734;28;20032;-79
2022/07/10 01:31:33;;;;;;;0.10;0.10;;;;;;;17.88;53.49;102863.03;5068498;28;20091;-80
2022/07/10 01:34:01;;;;;;;0.03;0.03;;;;;;;17.90;53.27;102861.22;5065977;28;20032;-79
2022/07/10 01:36:29;;;;;;;0.00;0.00;;;;;;;17.91;52.69;102860.31;5069129;28;20084;-79
2022/07/10 01:38:56;;;;;;;0.10;0.10;;;;;;;17.89;52.97;102854.09;5069777;28;20027;-80
2022/07/10 01:41:24;;;;;;;0.10;0.10;;;;;;;17.88;53.08;102852.31;5070997;28;20031;-79
2022/07/10 01:43:50;;;;;;;0.10;0.10;;;;;;;17.87;53.30;102853.22;5074794;28;20032;-79
2022/07/10 01:46:17;;;;;;;0.00;0.00;;;;;;;17.85;52.89;102849.72;5069861;28;20187;-79
2022/07/10 01:48:43;;;;;;;0.00;0.00;;;;;;;17.83;53.20;102846.16;5078001;28;20035;-78
2022/07/10 01:51:10;;;;;;;0.10;0.10;;;;;;;17.82;53.07;102850.66;5072615;28;20036;-79
2022/07/10 01:53:38;;;;;;;0.00;0.00;;;;;;;17.82;53.21;102844.38;5082593;28;20035;-79
2022/07/10 01:56:06;;;;;;;0.10;0.10;;;;;;;17.79;53.30;102843.56;5075063;28;20122;-79
2022/07/10 01:58:34;;;;;;;0.00;0.00;;;;;;;17.78;53.24;102836.41;5064075;28;20091;-79
2022/07/10 02:01:00;;;;;;;0.10;0.10;;;;;;;17.75;53.51;102839.13;5074725;28;20110;-79
2022/07/10 02:06:13;;;;;;;0.00;0.00;;;;;;;17.71;53.78;102837.44;5068230;28;20090;-79
2022/07/10 02:08:39;;;;;;;0.10;0.10;;;;;;;17.67;53.87;102841.09;5068907;28;20682;-78
2022/07/10 02:11:06;;;;;;;0.00;0.00;;;;;;;17.63;53.75;102844.72;5072975;28;20072;-79
2022/07/10 02:13:32;;;;;;;0.10;0.10;;;;;;;17.63;53.37;102844.72;5076631;28;20031;-79
2022/07/10 02:15:58;;;;;;;0.10;0.10;;;;;;;17.65;53.42;102848.28;5075903;28;20048;-79
2022/07/10 02:18:25;;;;;;;0.00;0.00;;;;;;;17.66;53.97;102854.50;5067431;28;20040;-79
2022/07/10 02:20:52;;;;;;;0.45;0.45;;;;;;;17.67;53.27;102859.88;5067753;28;20032;-79
2022/07/10 02:23:18;;;;;;;3.83;1.08;;;;;;;17.71;53.15;102860.69;5081356;28;20060;-80
2022/07/10 02:25:44;;;;;;;0.00;0.00;;;;;;;17.75;53.23;102849.88;5078894;28;20035;-79
2022/07/10 02:28:11;;;;;;;0.32;0.32;;;;;;;17.82;52.98;102847.97;5081269;28;20060;-79
2022/07/10 02:30:37;;;;;;;0.00;0.00;;;;;;;17.89;53.13;102841.56;5072955;28;20025;-79
2022/07/10 02:33:03;;;;;;;0.10;0.10;;;;;;;17.95;53.26;102840.59;5073287;28;20477;-79
2022/07/10 02:35:30;;;;;;;0.05;0.05;;;;;;;18.00;52.70;102833.34;5075318;28;20038;-80
2022/07/10 02:37:56;;;;;;;0.00;0.00;;;;;;;18.00;53.31;102827.13;5070635;28;20078;-78
2022/07/10 02:40:22;;;;;;;0.10;0.10;;;;;;;18.09;52.70;102825.13;5065044;28;20029;-80
2022/07/10 02:42:48;;;;;;;0.00;0.00;;;;;;;18.14;52.81;102826.84;5071602;28;20040;-79
2022/07/10 02:45:14;;;;;;;0.00;0.00;;;;;;;18.20;52.53;102811.47;5068728;28;20075;-80
2022/07/10 02:47:41;;;;;;;0.10;0.10;;;;;;;18.25;52.64;102811.41;5076895;28;20035;-79
2022/07/10 02:50:07;;;;;;;0.00;0.00;;;;;;;18.28;52.56;102830.13;5070843;28;20052;-79
2022/07/10 02:52:34;;;;;;;0.00;0.00;;;;;;;18.27;52.54;102831.03;5076104;28;20485;-79
2022/07/10 02:55:00;;;;;;;0.10;0.10;;;;;;;18.31;52.56;102830.06;5067001;28;20531;-79
2022/07/10 02:57:26;;;;;;;0.00;0.00;;;;;;;18.29;52.58;102836.38;5064302;28;20107;-79
2022/07/10 02:59:52;;;;;;;0.10;0.10;;;;;;;18.34;52.50;102838.03;5067636;28;20035;-80
2022/07/10 03:02:18;;;;;;;0.00;0.00;;;;;;;18.31;52.34;102834.53;5071971;28;20048;-79
2022/07/10 03:04:44;;;;;;;0.00;0.00;;;;;;;18.38;52.43;102829.00;5066979;28;21317;-78
2022/07/10 03:07:10;;;;;;;0.10;0.10;;;;;;;18.42;52.23;102825.34;5069037;28;20166;-80
2022/07/10 03:09:37;;;;;;;0.10;0.10;;;;;;;18.41;52.39;102820.88;5070738;28;20020;-79
2022/07/10 03:12:03;;;;;;;0.00;0.00;;;;;;;18.48;52.20;102827.03;5074318;28;20024;-79
2022/07/10 03:14:29;;;;;;;0.00;0.00;;;;;;;18.48;52.10;102823.44;5067953;28;20033;-79
2022/07/10 03:16:55;;;;;;;0.00;0.00;;;;;;;18.50;52.13;102825.16;5072288;28;20456;-79
2022/07/10 03:19:21;;;;;;;0.00;0.00;;;;;;;18.44;52.22;102817.25;5078118;28;21687;-79
2022/07/10 03:21:47;;;;;;;0.10;0.10;;;;;;;18.41;52.63;102823.56;5065978;28;20063;-78
2022/07/10 03:24:14;;;;;;;0.05;0.05;;;;;;;18.47;52.24;102822.56;5078359;28;20052;-79
2022/07/10 03:26:40;;;;;;;0.10;0.10;;;;;;;18.40;52.60;102816.41;5084627;28;20107;-79
2022/07/10 03:29:06;;;;;;;0.17;0.17;;;;;;;18.47;52.18;102811.81;5076582;28;20021;-79
2022/07/10 03:31:32;;;;;;;0.00;0.00;;;;;;;18.45;52.71;102810.09;5060180;28;20077;-80
2022/07/10 03:33:58;;;;;;;0.00;0.00;;;;;;;18.47;52.67;102810.94;5068686;28;20055;-79
2022/07/10 03:36:24;;;;;;;0.10;0.10;;;;;;;18.50;52.47;102817.13;5068262;28;20040;-79
2022/07/10 03:38:50;;;;;;;1.75;0.52;;;;;;;18.46;52.94;102817.25;5078859;28;20032;-79
2022/07/10 03:41:16;;;;;;;0.10;0.10;;;;;;;18.51;52.56;102816.19;5085791;28;20057;-79
2022/07/10 03:43:42;;;;;;;0.00;0.00;;;;;;;18.52;52.58;102812.59;5084294;28;20025;-79
2022/07/10 03:46:08;;;;;;;0.00;0.00;;;;;;;18.54;52.81;102808.09;5063710;28;20028;-79
2022/07/10 03:48:34;;;;;;;0.10;0.10;;;;;;;18.57;52.65;102807.16;5069859;28;20117;-79
2022/07/10 03:51:01;;;;;;;0.00;0.00;;;;;;;18.61;52.42;102810.66;5055587;28;20488;-79
2022/07/10 03:53:27;;;;;;;0.10;0.10;;;;;;;18.61;52.40;102814.19;5071577;28;20032;-79
2022/07/10 03:55:54;;;;;;;0.00;0.00;;;;;;;18.54;52.70;102808.09;5074872;28;20028;-79
2022/07/10 03:58:20;;;;;;;0.10;0.10;;;;;;;18.65;52.49;102813.19;5077759;28;20131;-79
2022/07/10 04:00:46;;;;;;;0.00;0.00;;;;;;;18.65;52.49;102807.84;5076620;28;20456;-79
2022/07/10 04:03:13;;;;;;;0.05;0.05;;;;;;;18.71;52.49;102804.13;5079455;28;20024;-79
2022/07/10 04:05:39;;;;;;;0.10;0.10;;;;;;;18.71;52.14;102805.00;5080407;28;20113;-80
2022/07/10 04:08:06;;;;;;;0.40;0.40;;;;;;;18.76;52.43;102797.72;5081439;28;20032;-79
2022/07/10 04:10:32;;;;;;;0.10;0.10;;;;;;;18.78;52.10;102783.38;5059404;28;20024;-78
2022/07/10 04:12:58;;;;;;;0.00;0.00;;;;;;;18.81;51.93;102783.31;5081046;28;20024;-79
2022/07/10 04:15:25;;;;;;;0.00;0.00;;;;;;;18.83;51.91;102776.09;5081266;28;20032;-80
2022/07/10 04:17:51;;;;;;;0.10;0.10;;;;;;;18.84;51.89;102783.25;5064486;28;20400;-80
2022/07/10 04:20:18;;;;;;;0.10;0.10;;;;;;;18.86;52.10;102794.84;5072104;28;20032;-79
2022/07/10 04:22:45;;;;;;;0.05;0.05;;;;;;;18.87;51.98;102797.47;5067823;28;20579;-80
2022/07/10 04:25:12;;;;;;;0.00;0.00;;;;;;;18.93;51.92;102793.81;5057183;28;20033;-80
2022/07/10 04:27:39;;;;;;;0.00;0.00;;;;;;;18.95;51.87;102788.41;5069249;28;20089;-79
2022/07/10 04:30:06;;;;;;;0.00;0.00;;;;;;;18.97;52.04;102791.94;5075662;28;20028;-80
2022/07/10 04:32:32;;;;;;;0.08;0.08;;;;;;;18.97;51.71;102795.50;5075225;28;20055;-80
2022/07/10 04:35:00;;;;;;;0.10;0.10;;;;;;;18.98;51.71;102805.31;5087263;28;20115;-78
2022/07/10 04:37:28;;;;;;;0.10;0.10;;;;;;;19.02;52.03;102804.31;5066616;28;20412;-79
2022/07/10 04:39:54;;;;;;;0.10;0.10;;;;;;;19.02;51.98;102809.69;5073125;28;20012;-80
2022/07/10 04:42:20;;;;;;;0.10;0.10;;;;;;;19.05;52.00;102815.00;5069978;28;20039;-80
2022/07/10 04:44:46;;;;;;;0.85;0.85;;;;;;;19.07;51.88;102815.84;5081480;28;20050;-79
2022/07/10 04:47:12;;;;;;;0.03;0.03;;;;;;;19.06;52.10;102806.00;5086356;28;20266;-79
2022/07/10 04:49:38;;;;;;;0.00;0.00;;;;;;;19.05;51.86;102815.00;5086824;28;20172;-80
2022/07/10 04:52:05;;;;;;;0.00;0.00;;;;;;;19.10;52.02;102809.50;5071218;28;20037;-80
2022/07/10 04:54:32;;;;;;;0.10;0.10;;;;;;;19.17;51.85;102807.56;5074742;28;20532;-79
2022/07/10 04:56:58;;;;;;;0.00;0.00;;;;;;;19.13;51.93;102813.91;5069100;28;20017;-80
2022/07/10 04:59:24;;;;;;;0.00;0.00;;;;;;;19.21;51.99;102807.44;5074164;28;20028;-79
2022/07/10 05:01:50;;;;;;;0.08;0.08;;;;;;;19.25;51.63;102818.97;5075913;28;20064;-80
2022/07/10 05:04:16;;;;;;;0.10;0.10;;;;;;;19.22;51.93;102819.94;5080196;28;20064;-79
2022/07/10 05:06:42;;;;;;;0.00;0.00;;;;;;;19.27;51.87;102827.91;5078347;28;20492;-80
2022/07/10 05:09:08;;;;;;;0.00;0.00;;;;;;;19.24;51.92;102820.81;5078612;28;20024;-79
2022/07/10 05:11:34;;;;;;;0.00;0.00;;;;;;;19.05;52.48;102819.47;5075440;28;20430;-80
2022/07/10 05:14:00;;;;;;;0.08;0.08;;;;;;;19.18;52.17;102820.94;5082340;28;20081;-80
2022/07/10 05:16:26;;;;;;;0.10;0.10;;;;;;;19.23;52.24;102834.28;5067054;28;20033;-80
2022/07/10 05:18:53;;;;;;;0.00;0.00;;;;;;;19.30;52.02;102819.78;5076113;28;20107;-80
2022/07/10 05:21:19;;;;;;;0.00;0.00;;;;;;;19.24;52.16;102818.13;5076125;28;20033;-80
2022/07/10 05:23:45;;;;;;;0.05;0.05;;;;;;;19.32;52.13;102819.72;5079840;28;20048;-80
2022/07/10 05:26:11;;;;;;;0.00;0.00;;;;;;;19.38;52.18;102823.13;5070307;28;20063;-80
2022/07/10 05:28:37;;;;;;;0.40;0.40;;;;;;;19.47;51.85;102818.44;5067967;28;20033;-80
2022/07/10 05:31:03;;;;;;;0.03;0.03;;;;;;;19.43;52.20;102814.97;5077660;28;20427;-80
2022/07/10 05:33:30;;;;;;;0.00;0.00;;;;;;;19.49;52.13;102819.28;5073129;28;20110;-79
2022/07/10 05:35:56;;;;;;;0.03;0.03;;;;;;;19.55;52.06;102816.44;5068873;28;20036;-79
2022/07/10 05:38:22;;;;;;;0.20;0.20;;;;;;;19.63;51.92;102808.19;5078557;28;20144;-79
2022/07/10 05:40:48;;;;;;;0.00;0.00;;;;;;;19.61;52.00;102808.19;5074788;28;20019;-79
2022/07/10 05:43:15;;;;;;;0.10;0.10;;;;;;;19.69;52.01;102806.19;5076023;28;20033;-80
2022/07/10 05:45:41;;;;;;;0.10;0.10;;;;;;;19.75;51.79;102797.09;5076606;28;20491;-80
2022/07/10 05:48:07;;;;;;;0.00;0.00;;;;;;;19.88;51.49;102792.28;5074086;28;20039;-80
2022/07/10 05:50:33;;;;;;;0.10;0.10;;;;;;;19.92;51.53;102796.63;5070825;28;20064;-79
2022/07/10 05:52:59;;;;;;;0.03;0.03;;;;;;;19.94;51.45;102802.88;5070137;28;20403;-79
2022/07/10 05:55:25;;;;;;;0.10;0.10;;;;;;;19.95;51.74;102796.56;5075449;28;20404;-79
2022/07/10 05:57:51;;;;;;;0.00;0.00;;;;;;;20.05;51.41;102799.88;5072933;28;20028;-79
2022/07/10 06:00:17;;;;;;;0.00;0.00;;;;;;;20.04;51.60;102795.41;5069052;28;20090;-79
2022/07/10 06:02:44;;;;;;;0.00;0.00;;;;;;;20.11;51.44;102801.50;5069166;28;20364;-78
2022/07/10 06:05:10;;;;;;;0.00;0.00;;;;;;;20.16;51.51;102796.84;5060732;28;20104;-79
2022/07/10 06:07:36;;;;;;;8.20;1.65;;;;;;;20.22;51.43;102793.97;5073097;28;20097;-79
2022/07/10 06:10:03;;;;;;;0.00;0.00;;;;;;;20.25;51.30;102793.00;5068647;28;20040;-79
2022/07/10 06:12:30;;;;;;;0.03;0.03;;;;;;;20.21;51.43;102781.44;5065122;28;20558;-78
2022/07/10 06:14:56;;;;;;;0.10;0.10;;;;;;;20.33;51.29;102796.34;5070620;28;20063;-79
2022/07/10 06:17:22;;;;;;;0.10;0.10;;;;;;;20.44;51.53;102798.72;5070451;28;20479;-78
2022/07/10 06:19:48;;;;;;;0.00;0.00;;;;;;;20.56;51.14;102797.47;5067766;28;20044;-79
2022/07/10 06:22:30;;;;;;;0.10;0.10;;;;;;;20.49;51.18;102796.78;5062118;28;20368;-79
2022/07/10 06:24:56;;;;;;;0.00;0.00;;;;;;;20.60;50.95;102794.63;5083158;28;20032;-78
2022/07/10 06:27:23;;;;;;;0.10;0.10;;;;;;;20.52;50.76;102805.66;5071157;28;20407;-80
2022/07/10 06:29:49;;;;;;;0.10;0.10;;;;;;;20.51;50.74;102794.91;5064675;28;20025;-79
2022/07/10 06:32:15;;;;;;;0.10;0.10;;;;;;;20.58;51.06;102793.78;5061324;28;20041;-79
2022/07/10 06:34:41;;;;;;;0.95;0.43;;;;;;;20.74;51.03;102804.13;5079831;28;20036;-79
2022/07/10 06:37:07;;;;;;;0.10;0.10;;;;;;;20.83;50.84;102795.75;5068654;28;20025;-79
2022/07/10 06:39:34;;;;;;;0.10;0.10;;;;;;;20.92;50.62;102787.38;5072200;28;20073;-79
2022/07/10 06:42:02;;;;;;;0.08;0.08;;;;;;;20.92;50.09;102800.84;5071132;28;20033;-78
2022/07/10 06:44:29;;;;;;;0.13;0.13;;;;;;;20.88;50.34;102801.00;5058955;28;20075;-79
2022/07/10 06:49:42;;;;;;;0.00;0.00;;;;;;;20.86;50.33;102806.44;5074766;28;20198;-80
2022/07/10 06:52:08;;;;;;;0.00;0.00;;;;;;;20.87;50.39;102810.84;5075075;28;20044;-79
2022/07/10 06:54:34;;;;;;;0.45;0.45;;;;;;;20.82;50.04;102808.34;5059715;28;20063;-80
2022/07/10 06:57:01;;;;;;;1.75;0.85;;;;;;;20.89;50.18;102809.00;5066373;28;20032;-80
2022/07/10 06:59:28;;;;;;;0.75;0.45;;;;;;;20.91;50.09;102815.25;5056541;28;20031;-79
2022/07/10 07:01:54;;;;;;;0.03;0.03;;;;;;;20.90;49.78;102812.56;5075385;28;20064;-78
2022/07/10 07:04:20;;;;;;;0.00;0.00;;;;;;;20.92;50.09;102810.72;5076217;28;20032;-79
2022/07/10 07:06:46;;;;;;;0.00;0.00;;;;;;;20.90;49.99;102808.09;5066842;28;20072;-80
2022/07/10 07:09:12;;;;;;;0.08;0.08;;;;;;;21.04;49.74;102809.44;5073692;28;20495;-78
2022/07/10 07:11:38;;;;;;;0.00;0.00;;;;;;;21.07;49.73;102814.72;5059065;28;20048;-80
2022/07/10 07:14:05;;;;;;;0.10;0.10;;;;;;;21.09;49.71;102811.03;5065099;28;20032;-79
2022/07/10 07:16:39;;;;;;;0.10;0.10;;;;;;;21.21;49.66;102807.06;5075215;28;20128;-79
2022/07/10 07:19:05;;;;;;;0.00;0.00;;;;;;;21.32;49.52;102806.69;5087874;28;20070;-79
2022/07/10 07:24:19;;;;;;;0.10;0.10;;;;;;;21.52;49.22;102800.63;5069555;28;20488;-79
2022/07/10 07:26:47;;;;;;;0.10;0.10;;;;;;;21.59;48.65;102806.72;5086216;28;20024;-80
2022/07/10 07:29:14;;;;;;;0.32;0.32;;;;;;;21.44;48.23;102802.69;5078364;28;20032;-79
2022/07/10 07:31:40;;;;;;;0.10;0.10;;;;;;;21.59;48.89;102801.31;5081813;28;20032;-79
2022/07/10 07:34:06;;;;;;;0.63;0.63;;;;;;;21.59;48.78;102804.88;5080202;28;20507;-79
2022/07/10 07:36:33;;;;;;;0.10;0.10;;;;;;;21.68;48.61;102797.41;5069476;28;20093;-78
2022/07/10 07:38:59;;;;;;;0.00;0.00;;;;;;;21.72;48.20;102801.75;5070823;28;20068;-79
2022/07/10 07:41:25;;;;;;;0.10;0.10;;;;;;;21.85;48.76;102803.06;5080180;28;20029;-79
2022/07/10 07:43:52;;;;;;;0.13;0.13;;;;;;;21.84;48.18;102798.59;5090345;28;20028;-80
2022/07/10 07:46:19;;;;;;;0.10;0.10;;;;;;;21.71;48.15;102802.69;5092046;28;20032;-79
2022/07/10 07:48:45;;;;;;;1.05;0.95;;;;;;;21.81;48.20;102801.44;5084357;28;20031;-78
2022/07/10 07:51:11;;;;;;;1.17;0.32;;;;;;;21.74;48.41;102811.53;5069913;28;20047;-79
2022/07/10 07:53:37;;;;;;;0.17;0.17;;;;;;;21.80;48.52;102805.06;5072234;28;20028;-79
2022/07/10 07:56:04;;;;;;;0.03;0.03;;;;;;;21.77;48.76;102815.94;5073754;28;20045;-79
2022/07/10 07:58:30;;;;;;;0.00;0.00;;;;;;;21.64;48.67;102827.16;5079748;28;20107;-79
2022/07/10 08:00:56;;;;;;;0.10;0.10;;;;;;;21.67;48.58;102818.13;5079346;28;20032;-79
2022/07/10 08:03:22;;;;;;;0.10;0.10;;;;;;;21.60;48.55;102812.03;5070087;28;20077;-79
2022/07/10 08:05:49;;;;;;;0.00;0.00;;;;;;;21.73;48.77;102811.59;5069174;28;20036;-80
2022/07/10 08:08:16;;;;;;;0.00;0.00;;;;;;;21.77;48.44;102815.94;5075456;28;20066;-79
2022/07/10 08:10:42;;;;;;;0.05;0.05;;;;;;;21.68;48.21;102816.28;5074995;28;20029;-78
2022/07/10 08:13:08;;;;;;;0.00;0.00;;;;;;;21.74;48.07;102816.06;5069175;28;20484;-79
2022/07/10 08:15:34;;;;;;;0.00;0.00;;;;;;;21.69;48.56;102802.75;5069643;28;20033;-80
2022/07/10 08:18:03;;;;;;;0.00;0.00;;;;;;;21.73;48.39;102812.50;5067224;28;20020;-79
2022/07/10 08:20:30;;;;;;;0.00;0.00;;;;;;;21.80;48.31;102807.75;5065377;28;20021;-79
2022/07/10 08:22:57;;;;;;;2.97;0.57;;;;;;;21.82;48.35;102803.19;5071259;28;20028;-80
2022/07/10 08:25:23;;;;;;;0.10;0.10;;;;;;;21.79;48.17;102803.28;5071988;28;20031;-79
2022/07/10 08:27:50;;;;;;;0.00;0.00;;;;;;;22.01;48.21;102807.88;5071925;28;20036;-78
2022/07/10 08:30:17;;;;;;;0.00;0.00;;;;;;;22.07;47.84;102803.16;5077349;28;20032;-79
2022/07/10 08:32:43;;;;;;;0.00;0.00;;;;;;;22.06;47.83;102812.19;5086818;28;20028;-79
2022/07/10 08:35:10;;;;;;;0.10;0.10;;;;;;;22.14;47.54;102806.50;5092011;28;20062;-80
2022/07/10 08:37:38;;;;;;;0.03;0.03;;;;;;;22.18;46.89;102805.47;5074608;28;20036;-79
2022/07/10 08:40:05;;;;;;;0.00;0.00;;;;;;;22.19;46.88;102812.59;5073795;28;20021;-79
2022/07/10 08:42:33;;;;;;;11.70;0.85;;;;;;;22.27;47.29;102802.41;5071417;28;20071;-79
2022/07/10 08:44:59;;;;;;;0.10;0.10;;;;;;;22.36;47.05;102803.00;5052904;28;20041;-79
2022/07/10 08:47:27;;;;;;;0.10;0.10;;;;;;;22.33;47.18;102798.59;5064888;28;20037;-79
2022/07/10 08:49:53;;;;;;;0.05;0.05;;;;;;;22.34;47.46;102796.75;5062149;28;20083;-79
2022/07/10 08:54:56;;;;;;;0.00;0.00;;;;;;;22.58;46.66;102803.03;5085050;28;20360;-78
2022/07/10 08:57:24;;;;;;;0.00;0.00;;;;;;;22.80;47.12;102804.91;5072023;28;20025;-79
2022/07/10 08:59:50;;;;;;;0.08;0.08;;;;;;;22.75;46.49;102799.66;5068391;28;20091;-79
2022/07/10 09:02:16;;;;;;;1.88;1.35;;;;;;;22.73;45.82;102804.25;5064944;28;20115;-78
2022/07/10 09:04:42;;;;;;;2.10;1.30;;;;;;;22.80;45.71;102792.25;5062131;28;20038;-79
2022/07/10 09:07:09;;;;;;;0.10;0.10;;;;;;;22.79;45.57;102779.69;5066365;28;20617;-78
2022/07/10 09:09:56;;;;;;;0.10;0.10;;;;;;;23.02;45.23;102783.28;5069246;28;20504;-79
2022/07/10 09:12:24;;;;;;;0.10;0.10;;;;;;;22.91;45.07;102784.56;5076003;28;20036;-78
2022/07/10 09:14:50;;;;;;;0.10;0.10;;;;;;;23.13;45.40;102794.50;5078106;28;20024;-78
2022/07/10 09:17:18;;;;;;;0.00;0.00;;;;;;;22.92;45.14;102778.22;5080743;28;20042;-79
2022/07/10 09:19:44;;;;;;;0.05;0.05;;;;;;;23.07;45.21;102775.84;5076801;28;20020;-78
2022/07/10 09:22:12;;;;;;;0.10;0.10;;;;;;;23.11;45.12;102769.34;5066607;28;20500;-79
2022/07/10 09:24:40;;;;;;;0.20;0.20;;;;;;;23.20;44.92;102779.81;5060050;28;20548;-79
2022/07/10 09:27:07;;;;;;;0.20;0.20;;;;;;;23.35;43.66;102771.97;5080972;28;20043;-79
2022/07/10 09:29:48;;;;;;;0.20;0.20;;;;;;;23.36;44.00;102762.91;5068864;28;20038;-79
2022/07/10 09:32:17;;;;;;;0.10;0.10;;;;;;;23.52;44.45;102761.28;5067973;28;20064;-78
2022/07/10 09:37:43;;;;;;;0.00;0.00;;;;;;;23.77;44.08;102765.59;5066646;28;20127;-79
2022/07/10 09:40:09;;;;;;;0.10;0.10;;;;;;;23.87;43.56;102769.63;5070483;28;20515;-79
2022/07/10 09:42:39;;;;;;;0.10;0.10;;;;;;;24.01;43.41;102771.75;5066110;28;20381;-79
2022/07/10 09:50:29;;;;;;;0.45;0.45;;;;;;;24.01;42.15;102766.34;5097743;27;20354;-77
2022/07/10 09:53:00;;;;;;;0.05;0.05;;;;;;;24.16;42.57;102758.44;5096301;28;20077;-77
2022/07/10 09:55:29;;;;;;;0.03;0.03;;;;;;;24.14;42.54;102761.22;5077778;28;20405;-77
2022/07/10 09:57:59;;;;;;;0.10;0.10;;;;;;;24.32;42.85;102748.63;5082356;28;20546;-77
2022/07/10 10:00:29;;;;;;;0.00;0.00;;;;;;;24.15;42.46;102759.38;5079971;28;20170;-77
2022/07/10 10:02:58;;;;;;;0.10;0.10;;;;;;;24.23;42.21;102758.06;5083432;28;20036;-77
2022/07/10 10:05:36;;;;;;;0.00;0.00;;;;;;;24.20;41.89;102755.50;5077984;28;20509;-76
2022/07/10 10:08:26;;;;;;;0.00;0.00;;;;;;;24.25;42.70;102752.59;5079726;28;20032;-77
2022/07/10 10:10:53;;;;;;;0.00;0.00;;;;;;;24.20;42.55;102749.19;5074636;28;20184;-76
2022/07/10 10:13:21;;;;;;;0.10;0.10;;;;;;;24.26;42.10;102753.47;5084714;28;20036;-77
2022/07/10 10:15:50;;;;;;;0.00;0.00;;;;;;;24.16;41.77;102756.63;5080192;28;20440;-77
2022/07/10 10:18:19;;;;;;;0.30;0.30;;;;;;;24.25;41.66;102757.13;5080491;28;20498;-78
2022/07/10 10:20:47;;;;;;;0.20;0.20;;;;;;;24.34;41.93;102762.09;5076545;28;20027;-76
2022/07/10 10:23:20;;;;;;;0.00;0.00;;;;;;;24.34;40.79;102753.97;5076627;28;20033;-76
2022/07/10 10:25:56;;;;;;;0.10;0.10;;;;;;;24.26;40.82;102758.88;5077047;28;20073;-77
2022/07/10 10:28:24;;;;;;;0.17;0.17;;;;;;;24.23;39.96;102744.53;5077354;28;20131;-77
2022/07/10 10:30:57;;;;;;;0.05;0.05;;;;;;;24.30;39.25;102755.06;5079633;28;20042;-77
2022/07/10 10:36:37;;;;;;;0.03;0.03;;;;;;;24.27;39.28;102749.81;5094451;27;20400;-76
2022/07/10 10:39:10;;;;;;;0.10;0.10;;;;;;;24.46;39.69;102742.56;5100372;28;20058;-76
2022/07/10 10:41:40;;;;;;;0.10;0.10;;;;;;;24.43;39.07;102741.81;5104923;28;20032;-77
2022/07/10 10:49:49;;;;;;;0.80;0.80;;;;;;;24.96;39.00;102748.25;5088254;28;20376;-79
2022/07/10 10:52:16;;;;;;;0.10;0.10;;;;;;;25.04;38.94;102744.19;5084713;28;20028;-78
2022/07/10 11:00:15;;;;;;;0.00;0.00;;;;;;;25.01;38.88;102751.59;5081950;27;20349;-79
2022/07/10 11:02:41;;;;;;;0.10;0.10;;;;;;;24.99;38.83;102742.69;5079011;28;20115;-79
2022/07/10 11:13:12;;;;;;;0.10;0.10;;;;;;;24.93;38.87;102729.44;5110896;27;20382;-78
2022/07/10 11:15:42;;;;;;;0.10;0.10;;;;;;;24.69;38.33;102740.56;5102527;28;20157;-78
2022/07/10 11:18:11;;;;;;;0.10;0.10;;;;;;;24.77;38.83;102738.31;5088572;28;20089;-76
2022/07/10 11:20:46;;;;;;;0.10;0.10;;;;;;;24.84;39.67;102733.50;5093142;28;20050;-76
2022/07/10 11:26:16;;;;;;;0.10;0.10;;;;;;;25.16;38.96;102726.41;5055692;28;20396;-76
2022/07/10 11:29:05;;;;;;;0.10;0.10;;;;;;;25.22;37.20;102721.63;5055185;28;20562;-77
2022/07/10 11:31:37;;;;;;;0.10;0.10;;;;;;;25.28;37.67;102718.56;5053544;28;20032;-77
2022/07/10 11:34:03;;;;;;;0.55;0.55;;;;;;;25.41;38.08;102716.13;5035877;28;20144;-78
2022/07/10 11:36:31;;;;;;;0.05;0.05;;;;;;;25.34;37.45;102718.25;5029953;28;20396;-78
2022/07/10 11:39:04;;;;;;;0.17;0.17;;;;;;;25.38;36.52;102721.72;5028999;28;20027;-77
2022/07/10 11:41:31;;;;;;;0.20;0.20;;;;;;;25.47;37.33;102719.41;5026011;28;20079;-79
2022/07/10 11:43:59;;;;;;;0.08;0.08;;;;;;;25.58;38.06;102712.50;5026245;28;20369;-78
2022/07/10 11:46:27;;;;;;;0.10;0.10;;;;;;;25.46;36.29;102714.91;5026718;28;20063;-78
2022/07/10 11:48:56;;;;;;;0.32;0.32;;;;;;;25.47;36.38;102711.25;5026195;28;20088;-79
2022/07/10 11:51:28;;;;;;;0.00;0.00;;;;;;;25.70;36.80;102705.53;5022908;28;20026;-79
2022/07/10 11:54:02;;;;;;;0.10;0.10;;;;;;;25.54;35.32;102710.91;5024593;28;20116;-79
2022/07/10 11:56:32;;;;;;;0.00;0.00;;;;;;;25.65;35.22;102708.50;5025529;28;20079;-79
2022/07/10 11:59:14;;;;;;;0.10;0.10;;;;;;;25.73;35.64;102700.78;5028240;28;20037;-78
2022/07/10 12:04:24;;;;;;;0.10;0.10;;;;;;;25.58;34.70;102712.50;5113550;27;20374;-81
2022/07/10 12:06:51;;;;;;;0.10;0.10;;;;;;;25.87;35.16;102701.88;5095626;28;20047;-81
2022/07/10 12:09:20;;;;;;;0.10;0.10;;;;;;;25.98;34.29;102702.13;5082931;28;20416;-80
2022/07/10 12:14:36;;;;;;;0.15;0.15;;;;;;;26.17;35.04;102693.88;5074241;28;20379;-80